Time;durP1;ratioP1;P1;durP2;ratioP2;P2;SDS_P1;SDS_P2;PMS_P1;PMS_P2;Temp;Humidity;BMP_temperature;BMP_pressure;BME280_temperature;BME280_humidity;BME280_pressure;Samples;Min_cycle;Max_cycle;Signal;HPM_P1;HPM_P2
2022/03/01 00:01:58;;;;;;;11.85;9.15;;;2.80;78.10;;;;;;4996244;28;20769;-68
2022/03/01 00:04:24;;;;;;;12.95;8.40;;;2.80;78.00;;;;;;5004183;28;20046;-68
2022/03/01 00:06:50;;;;;;;11.93;8.82;;;2.80;77.90;;;;;;5010161;28;20067;-68
2022/03/01 00:09:16;;;;;;;11.38;8.85;;;2.80;77.90;;;;;;5005866;28;20041;-68
2022/03/01 00:11:42;;;;;;;12.45;8.93;;;2.80;77.90;;;;;;5012314;28;20052;-68
2022/03/01 00:14:08;;;;;;;10.93;8.57;;;2.80;77.90;;;;;;5012258;28;20026;-68
2022/03/01 00:16:34;;;;;;;13.57;8.73;;;2.70;78.10;;;;;;4993244;28;20114;-68
2022/03/01 00:19:00;;;;;;;11.02;8.27;;;2.70;78.00;;;;;;4992391;28;20120;-68
2022/03/01 00:21:28;;;;;;;13.50;8.60;;;2.60;78.00;;;;;;5008929;28;20046;-68
2022/03/01 00:23:53;;;;;;;10.93;8.27;;;2.70;78.00;;;;;;4990819;28;20046;-68
2022/03/01 00:26:19;;;;;;;11.25;9.40;;;2.70;77.90;;;;;;4990772;28;20041;-68
2022/03/01 00:28:45;;;;;;;13.90;8.65;;;2.70;77.90;;;;;;5007551;28;20054;-68
2022/03/01 00:31:11;;;;;;;11.75;8.30;;;2.60;77.90;;;;;;4969206;28;20049;-68
2022/03/01 00:33:36;;;;;;;12.02;8.93;;;2.60;78.00;;;;;;5003241;28;20038;-68
2022/03/01 00:36:02;;;;;;;10.52;8.38;;;2.60;78.00;;;;;;5000572;28;20073;-68
2022/03/01 00:38:28;;;;;;;10.07;8.35;;;2.60;78.00;;;;;;4997383;28;20072;-67
2022/03/01 00:40:55;;;;;;;12.27;9.10;;;2.50;77.90;;;;;;5001913;28;20312;-67
2022/03/01 00:43:21;;;;;;;11.15;8.95;;;2.50;78.00;;;;;;5012661;28;20037;-68
2022/03/01 00:45:48;;;;;;;11.73;8.93;;;2.50;78.00;;;;;;4987815;28;20042;-68
2022/03/01 00:48:14;;;;;;;12.25;9.35;;;2.50;78.90;;;;;;5011627;28;20042;-68
2022/03/01 00:50:39;;;;;;;11.10;8.43;;;2.50;78.00;;;;;;5002670;28;20029;-68
2022/03/01 00:53:05;;;;;;;10.18;7.55;;;2.40;78.00;;;;;;4983433;28;20623;-68
2022/03/01 00:55:31;;;;;;;13.57;9.15;;;2.40;78.10;;;;;;5006083;28;20126;-68
2022/03/01 00:57:57;;;;;;;13.25;8.90;;;2.40;78.10;;;;;;4976325;28;20458;-68
2022/03/01 01:00:22;;;;;;;14.30;8.52;;;2.40;78.00;;;;;;4990805;28;20042;-68
2022/03/01 01:02:48;;;;;;;14.25;9.15;;;2.30;78.10;;;;;;4987405;28;20050;-68
2022/03/01 01:05:14;;;;;;;11.75;9.05;;;2.40;78.00;;;;;;4996658;28;20137;-68
2022/03/01 01:07:40;;;;;;;13.50;8.57;;;2.40;78.00;;;;;;5007119;28;20042;-68
2022/03/01 01:10:06;;;;;;;9.48;7.93;;;2.40;77.80;;;;;;5004430;28;20056;-68
2022/03/01 01:12:33;;;;;;;13.43;9.43;;;2.40;77.80;;;;;;4973983;28;20112;-68
2022/03/01 01:14:59;;;;;;;12.95;9.23;;;2.40;77.70;;;;;;5007429;28;20046;-68
2022/03/01 01:17:25;;;;;;;11.93;8.60;;;2.40;77.90;;;;;;5005526;28;20080;-68
2022/03/01 01:19:51;;;;;;;12.85;9.13;;;2.30;77.70;;;;;;5008187;28;20349;-68
2022/03/01 01:25:02;;;;;;;12.02;9.00;;;2.30;78.00;;;;;;4993097;28;20056;-68
2022/03/01 01:27:28;;;;;;;14.48;9.05;;;2.30;78.00;;;;;;5002310;28;20061;-68
2022/03/01 01:29:54;;;;;;;11.90;8.93;;;2.20;78.00;;;;;;4989271;28;20059;-68
2022/03/01 01:32:19;;;;;;;13.30;8.88;;;2.30;78.00;;;;;;4983116;28;20085;-68
2022/03/01 01:34:45;;;;;;;12.40;8.60;;;2.30;78.00;;;;;;5003791;28;20046;-68
2022/03/01 01:37:11;;;;;;;11.57;8.23;;;2.30;77.80;;;;;;4992819;28;20120;-68
2022/03/01 01:39:37;;;;;;;11.45;9.07;;;2.40;77.80;;;;;;4990488;28;20117;-68
2022/03/01 01:42:03;;;;;;;12.18;8.32;;;2.40;77.80;;;;;;4991211;28;20100;-68
2022/03/01 01:44:30;;;;;;;10.93;8.45;;;2.40;78.40;;;;;;4991225;28;20048;-68
2022/03/01 01:46:56;;;;;;;12.18;9.20;;;2.40;77.70;;;;;;5009287;28;20065;-68
2022/03/01 01:49:22;;;;;;;12.48;8.63;;;2.40;77.90;;;;;;4990684;28;20148;-68
2022/03/01 01:51:48;;;;;;;10.23;8.63;;;2.40;78.50;;;;;;4987852;28;20498;-68
2022/03/01 01:54:13;;;;;;;12.27;9.15;;;2.40;77.90;;;;;;5007684;28;20053;-68
2022/03/01 01:56:39;;;;;;;11.43;8.85;;;2.40;77.80;;;;;;5001804;28;20371;-68
2022/03/01 01:59:05;;;;;;;14.93;8.77;;;2.40;77.80;;;;;;4988549;28;20073;-69
2022/03/01 02:01:31;;;;;;;12.60;9.18;;;2.40;77.90;;;;;;5002935;28;20048;-68
2022/03/01 02:03:56;;;;;;;11.10;8.85;;;2.50;77.80;;;;;;4989901;28;20117;-69
2022/03/01 02:06:22;;;;;;;13.07;10.23;;;2.40;77.90;;;;;;4986916;28;20101;-69
2022/03/01 02:08:48;;;;;;;13.02;9.18;;;2.50;77.80;;;;;;4986342;28;20440;-69
2022/03/01 02:11:13;;;;;;;12.48;9.60;;;2.50;77.80;;;;;;5010756;28;20042;-69
2022/03/01 02:13:39;;;;;;;14.32;8.70;;;2.50;77.80;;;;;;4989784;28;20046;-69
2022/03/01 02:16:05;;;;;;;11.32;8.63;;;2.50;77.80;;;;;;5010275;28;20029;-69
2022/03/01 02:18:31;;;;;;;13.38;9.82;;;2.50;77.80;;;;;;4995152;28;20046;-69
2022/03/01 02:20:56;;;;;;;14.65;9.65;;;2.60;77.80;;;;;;4991645;28;20049;-69
2022/03/01 02:23:22;;;;;;;14.20;9.85;;;2.50;77.70;;;;;;4991550;28;20038;-68
2022/03/01 02:25:48;;;;;;;13.98;9.52;;;2.50;77.70;;;;;;5003735;28;20049;-69
2022/03/01 02:28:13;;;;;;;11.48;8.73;;;2.40;77.80;;;;;;4995913;28;20116;-69
2022/03/01 02:30:39;;;;;;;12.77;9.20;;;2.50;77.90;;;;;;4989797;28;20650;-68
2022/03/01 02:33:05;;;;;;;12.48;9.52;;;2.40;77.90;;;;;;5006816;28;20382;-68
2022/03/01 02:35:31;;;;;;;10.70;9.10;;;2.40;78.00;;;;;;5006973;28;20041;-68
2022/03/01 02:37:57;;;;;;;12.98;9.60;;;2.40;77.90;;;;;;4991620;28;20050;-69
2022/03/01 02:40:22;;;;;;;14.55;9.73;;;2.40;78.00;;;;;;4991719;28;20069;-69
2022/03/01 02:42:48;;;;;;;12.98;9.13;;;2.40;77.90;;;;;;5002110;28;20425;-68
2022/03/01 02:45:16;;;;;;;13.55;9.25;;;2.40;78.00;;;;;;4988659;28;20050;-69
2022/03/01 02:47:42;;;;;;;11.75;9.45;;;2.30;78.00;;;;;;4994510;28;20046;-69
2022/03/01 02:50:09;;;;;;;14.35;9.75;;;2.40;78.10;;;;;;5001219;28;20521;-69
2022/03/01 02:52:35;;;;;;;14.25;9.60;;;2.30;78.20;;;;;;5004593;28;20111;-69
2022/03/01 02:55:02;;;;;;;12.02;9.60;;;2.30;78.20;;;;;;5002015;28;20374;-69
2022/03/01 02:57:28;;;;;;;11.95;9.30;;;2.20;78.20;;;;;;4990154;28;20076;-68
2022/03/01 02:59:54;;;;;;;12.95;9.68;;;2.20;78.50;;;;;;5003673;28;20050;-68
2022/03/01 03:02:20;;;;;;;13.02;9.32;;;2.30;78.50;;;;;;5011797;28;20038;-69
2022/03/01 03:04:46;;;;;;;12.75;9.18;;;2.30;78.60;;;;;;4990261;28;20112;-68
2022/03/01 03:07:13;;;;;;;12.45;9.30;;;2.20;78.50;;;;;;4989002;28;20114;-68
2022/03/01 03:09:39;;;;;;;13.10;10.15;;;2.20;78.50;;;;;;4990820;28;20061;-68
2022/03/01 03:12:05;;;;;;;12.60;8.98;;;2.20;78.50;;;;;;4988563;28;20486;-69
2022/03/01 03:14:31;;;;;;;14.00;10.05;;;2.10;78.90;;;;;;5008813;28;20107;-69
2022/03/01 03:16:57;;;;;;;13.55;9.30;;;2.10;79.00;;;;;;4990503;28;20053;-69
2022/03/01 03:19:24;;;;;;;13.05;9.50;;;2.00;79.00;;;;;;5013365;28;20037;-69
2022/03/01 03:21:50;;;;;;;13.02;10.00;;;2.00;79.30;;;;;;4989960;28;20077;-69
2022/03/01 03:24:16;;;;;;;12.82;9.77;;;2.00;79.40;;;;;;5008789;28;20069;-69
2022/03/01 03:26:42;;;;;;;13.20;9.30;;;2.00;79.40;;;;;;4990868;28;20137;-69
2022/03/01 03:29:08;;;;;;;12.45;9.57;;;1.90;79.40;;;;;;5005311;28;20075;-69
2022/03/01 03:31:42;;;;;;;13.00;9.90;;;1.90;79.40;;;;;;5002421;28;20044;-69
2022/03/01 03:34:09;;;;;;;13.70;10.13;;;2.00;79.70;;;;;;5006434;28;20045;-69
2022/03/01 03:36:36;;;;;;;13.43;10.40;;;2.00;79.70;;;;;;4989718;28;20095;-69
2022/03/01 03:39:04;;;;;;;14.60;9.82;;;2.00;80.40;;;;;;4992376;28;20398;-69
2022/03/01 03:41:30;;;;;;;14.50;10.73;;;2.00;80.00;;;;;;5006743;28;20454;-69
2022/03/01 03:43:55;;;;;;;13.40;10.30;;;2.00;80.20;;;;;;5004097;28;20042;-69
2022/03/01 03:46:21;;;;;;;12.93;10.07;;;2.00;80.20;;;;;;4987116;28;20381;-69
2022/03/01 03:48:48;;;;;;;13.52;9.60;;;2.00;80.20;;;;;;5007747;28;20129;-69
2022/03/01 03:51:14;;;;;;;13.88;10.23;;;2.00;80.20;;;;;;4991360;28;20045;-69
2022/03/01 03:53:39;;;;;;;14.50;9.77;;;2.10;80.20;;;;;;4990925;28;20052;-69
2022/03/01 03:56:05;;;;;;;14.90;10.82;;;2.10;80.10;;;;;;4975193;28;20053;-69
2022/03/01 03:58:31;;;;;;;11.93;9.65;;;2.10;80.20;;;;;;5009246;28;20041;-69
2022/03/01 04:00:57;;;;;;;14.98;11.30;;;2.10;81.10;;;;;;4987986;28;20053;-69
2022/03/01 04:03:26;;;;;;;13.65;9.88;;;2.10;80.50;;;;;;4991190;28;20053;-69
2022/03/01 04:05:52;;;;;;;17.02;9.80;;;2.10;80.30;;;;;;5007539;28;20050;-69
2022/03/01 04:08:18;;;;;;;13.82;10.48;;;2.10;80.40;;;;;;4987080;28;20788;-69
2022/03/01 04:10:44;;;;;;;18.35;10.95;;;2.10;80.50;;;;;;4990416;28;20058;-69
2022/03/01 04:13:10;;;;;;;12.10;10.25;;;2.10;80.50;;;;;;4981370;28;20050;-69
2022/03/01 04:15:36;;;;;;;16.25;10.98;;;2.20;80.60;;;;;;4965827;28;20045;-69
2022/03/01 04:18:03;;;;;;;15.27;10.80;;;2.20;80.60;;;;;;4962929;28;20051;-69
2022/03/01 04:20:29;;;;;;;13.80;10.30;;;2.20;80.70;;;;;;4968508;28;20081;-69
2022/03/01 04:22:55;;;;;;;13.15;9.27;;;2.20;80.80;;;;;;4964297;28;20042;-69
2022/03/01 04:25:21;;;;;;;15.43;10.88;;;2.10;80.80;;;;;;4969025;28;20054;-69
2022/03/01 04:27:46;;;;;;;13.93;10.02;;;2.10;80.80;;;;;;4977863;28;20446;-69
2022/03/01 04:30:13;;;;;;;14.93;10.35;;;2.20;80.80;;;;;;4962209;28;20042;-69
2022/03/01 04:32:40;;;;;;;14.07;10.38;;;2.20;80.80;;;;;;4963581;28;20718;-69
2022/03/01 04:35:08;;;;;;;14.95;11.02;;;2.20;80.70;;;;;;4967275;28;20042;-69
2022/03/01 04:37:39;;;;;;;14.07;10.05;;;2.20;80.70;;;;;;4965428;28;20050;-69
2022/03/01 04:40:06;;;;;;;15.73;10.13;;;2.10;80.70;;;;;;4966612;28;20074;-69
2022/03/01 04:42:32;;;;;;;14.52;10.48;;;2.20;80.90;;;;;;4967245;28;20545;-69
2022/03/01 04:44:59;;;;;;;17.52;11.65;;;2.10;81.10;;;;;;4963572;28;20061;-69
2022/03/01 04:47:24;;;;;;;14.02;10.50;;;2.00;81.10;;;;;;4961969;28;20054;-69
2022/03/01 04:49:50;;;;;;;14.38;10.93;;;2.10;81.20;;;;;;4966357;28;20049;-69
2022/03/01 04:52:16;;;;;;;14.05;10.88;;;2.00;81.30;;;;;;4982085;28;20058;-69
2022/03/01 04:54:42;;;;;;;15.85;12.02;;;2.00;81.40;;;;;;4965779;28;20045;-69
2022/03/01 04:57:08;;;;;;;15.18;10.68;;;2.10;81.40;;;;;;4962598;28;20050;-69
2022/03/01 04:59:33;;;;;;;16.15;11.18;;;2.10;81.40;;;;;;4955023;28;20048;-69
2022/03/01 05:01:59;;;;;;;18.15;11.32;;;2.10;81.80;;;;;;4967565;28;20086;-69
2022/03/01 05:04:25;;;;;;;14.27;11.65;;;2.10;81.60;;;;;;4979542;28;20113;-69
2022/03/01 05:06:51;;;;;;;18.02;11.60;;;2.10;81.70;;;;;;4965875;28;20075;-69
2022/03/01 05:09:17;;;;;;;17.13;11.20;;;2.10;81.90;;;;;;4966358;28;20082;-69
2022/03/01 05:11:43;;;;;;;15.63;11.75;;;2.10;81.70;;;;;;5004438;28;20076;-69
2022/03/01 05:14:09;;;;;;;17.83;11.23;;;2.20;81.80;;;;;;4985721;28;20049;-69
2022/03/01 05:16:35;;;;;;;14.65;10.80;;;2.10;81.70;;;;;;5007552;28;20120;-69
2022/03/01 05:19:01;;;;;;;15.00;11.20;;;2.20;81.80;;;;;;4999666;28;20057;-69
2022/03/01 05:21:28;;;;;;;15.13;11.90;;;2.20;81.80;;;;;;4986891;28;20402;-69
2022/03/01 05:23:54;;;;;;;16.48;11.18;;;2.10;81.80;;;;;;4991825;28;20636;-69
2022/03/01 05:26:19;;;;;;;14.65;11.38;;;2.20;81.80;;;;;;5002981;28;20084;-69
2022/03/01 05:28:45;;;;;;;17.50;12.27;;;2.10;81.80;;;;;;5011618;28;20126;-69
2022/03/01 05:31:11;;;;;;;16.80;12.60;;;2.10;82.00;;;;;;5008996;28;20452;-69
2022/03/01 05:33:36;;;;;;;19.63;11.80;;;2.10;82.20;;;;;;4989267;28;20048;-69
2022/03/01 05:36:03;;;;;;;16.25;11.27;;;2.00;82.40;;;;;;4992348;28;20128;-69
2022/03/01 05:38:29;;;;;;;14.63;11.88;;;2.00;82.60;;;;;;4989280;28;20057;-69
2022/03/01 05:40:54;;;;;;;17.83;11.55;;;2.00;82.70;;;;;;5003552;28;20042;-69
2022/03/01 05:43:20;;;;;;;15.13;11.75;;;2.10;82.70;;;;;;5007571;28;20045;-69
2022/03/01 05:45:46;;;;;;;16.27;11.52;;;2.10;82.60;;;;;;4987671;28;20046;-69
2022/03/01 05:48:12;;;;;;;15.07;10.70;;;2.20;82.60;;;;;;4985354;28;20100;-69
2022/03/01 05:50:37;;;;;;;15.18;11.07;;;2.20;82.50;;;;;;5015498;28;20117;-69
2022/03/01 05:53:03;;;;;;;16.25;12.23;;;2.20;82.40;;;;;;5001190;28;20398;-69
2022/03/01 05:55:29;;;;;;;16.13;11.40;;;2.20;82.30;;;;;;4990383;28;20125;-69
2022/03/01 05:57:55;;;;;;;16.50;11.77;;;2.20;82.20;;;;;;4996949;28;20060;-69
2022/03/01 06:00:21;;;;;;;17.90;11.27;;;2.20;82.10;;;;;;4998773;28;20069;-69
2022/03/01 06:02:49;;;;;;;15.43;11.15;;;2.20;82.10;;;;;;5004371;28;20132;-69
2022/03/01 06:05:15;;;;;;;15.23;10.73;;;2.20;82.00;;;;;;5006545;28;20046;-69
2022/03/01 06:07:42;;;;;;;15.98;11.10;;;2.20;82.10;;;;;;4992529;28;20633;-69
2022/03/01 06:10:08;;;;;;;14.77;11.75;;;2.20;82.00;;;;;;5004500;28;20110;-69
2022/03/01 06:12:34;;;;;;;20.40;13.73;;;2.20;81.90;;;;;;5006499;28;20050;-69
2022/03/01 06:15:01;;;;;;;13.65;10.35;;;2.20;81.90;;;;;;4999373;28;20553;-69
2022/03/01 06:17:27;;;;;;;15.23;10.80;;;2.10;82.00;;;;;;4985621;28;20047;-69
2022/03/01 06:19:52;;;;;;;14.27;10.98;;;2.10;82.00;;;;;;5003243;28;20530;-69
2022/03/01 06:22:20;;;;;;;15.98;10.98;;;2.10;82.70;;;;;;5011888;28;20105;-69
2022/03/01 06:24:46;;;;;;;14.68;10.43;;;2.10;82.20;;;;;;4987970;28;20084;-69
2022/03/01 06:27:12;;;;;;;12.98;10.73;;;2.10;82.20;;;;;;5002620;28;20054;-69
2022/03/01 06:29:38;;;;;;;15.30;10.90;;;2.10;82.20;;;;;;5004779;28;20039;-69
2022/03/01 06:32:05;;;;;;;14.05;11.02;;;2.10;82.30;;;;;;5013747;28;20056;-69
2022/03/01 06:34:31;;;;;;;13.95;10.73;;;2.10;82.30;;;;;;4987623;28;20058;-69
2022/03/01 06:36:57;;;;;;;17.67;11.13;;;2.10;82.40;;;;;;5003289;28;20061;-69
2022/03/01 06:39:23;;;;;;;15.23;9.82;;;2.10;82.50;;;;;;4991278;28;20053;-69
2022/03/01 06:41:50;;;;;;;16.85;11.30;;;2.10;82.50;;;;;;5011031;28;20556;-69
2022/03/01 06:44:16;;;;;;;13.13;10.13;;;2.20;82.50;;;;;;5002833;28;20057;-69
2022/03/01 06:46:42;;;;;;;14.43;11.50;;;2.20;82.60;;;;;;5001568;28;20076;-69
2022/03/01 06:49:08;;;;;;;13.38;10.63;;;2.20;82.60;;;;;;4992868;28;20073;-69
2022/03/01 06:51:34;;;;;;;15.02;10.85;;;2.20;82.60;;;;;;4990811;28;20057;-69
2022/03/01 06:54:00;;;;;;;15.25;10.95;;;2.30;82.90;;;;;;5009095;28;20038;-69
2022/03/01 06:56:27;;;;;;;18.95;11.48;;;2.30;83.00;;;;;;5005126;28;20041;-69
2022/03/01 06:58:53;;;;;;;13.57;10.60;;;2.30;83.10;;;;;;5006575;28;20041;-69
2022/03/01 07:01:19;;;;;;;16.15;11.38;;;2.30;83.00;;;;;;5004802;28;20034;-69
2022/03/01 07:03:45;;;;;;;17.17;11.38;;;2.40;83.10;;;;;;4991074;28;20058;-70
2022/03/01 07:06:11;;;;;;;14.73;11.38;;;2.50;83.10;;;;;;5005716;28;20135;-68
2022/03/01 07:08:37;;;;;;;20.70;11.73;;;2.50;83.00;;;;;;4990270;28;20044;-68
2022/03/01 07:11:03;;;;;;;15.45;10.60;;;2.60;83.00;;;;;;4970021;28;1087921;-68
2022/03/01 07:13:29;;;;;;;15.00;11.30;;;2.70;83.10;;;;;;5009877;28;20045;-68
2022/03/01 07:15:55;;;;;;;15.35;11.43;;;2.70;83.10;;;;;;5001925;28;20042;-67
2022/03/01 07:18:21;;;;;;;14.30;11.15;;;2.80;83.30;;;;;;4999205;28;20725;-67
2022/03/01 07:20:46;;;;;;;16.35;11.35;;;2.80;83.30;;;;;;4990501;28;20370;-67
2022/03/01 07:23:13;;;;;;;15.18;11.65;;;2.90;83.10;;;;;;5005022;28;20049;-68
2022/03/01 07:25:39;;;;;;;15.68;11.50;;;3.00;83.00;;;;;;5008821;28;20042;-68
2022/03/01 07:28:05;;;;;;;13.75;10.77;;;3.00;83.30;;;;;;5006987;28;20520;-68
2022/03/01 07:30:31;;;;;;;15.32;11.57;;;3.10;83.00;;;;;;5005010;28;20061;-68
2022/03/01 07:32:58;;;;;;;17.58;12.20;;;3.20;83.10;;;;;;5007002;28;20410;-68
2022/03/01 07:35:25;;;;;;;15.43;11.85;;;3.30;83.00;;;;;;5007604;28;20042;-68
2022/03/01 07:37:52;;;;;;;17.60;11.32;;;3.30;82.80;;;;;;5006308;28;20033;-68
2022/03/01 07:40:20;;;;;;;15.52;10.95;;;3.40;82.80;;;;;;5006764;28;20056;-69
2022/03/01 07:42:45;;;;;;;13.82;11.25;;;3.50;82.70;;;;;;4987788;28;20093;-69
2022/03/01 07:45:11;;;;;;;14.32;10.95;;;3.50;82.50;;;;;;5007624;28;20088;-69
2022/03/01 07:47:41;;;;;;;13.57;11.52;;;3.60;82.30;;;;;;4989374;28;20049;-69
2022/03/01 07:50:07;;;;;;;17.13;11.82;;;3.70;82.40;;;;;;5004659;28;20034;-69
2022/03/01 07:52:36;;;;;;;14.88;11.27;;;3.70;82.20;;;;;;4992378;28;20485;-69
2022/03/01 07:55:03;;;;;;;18.52;12.23;;;3.80;82.30;;;;;;4989886;28;20046;-69
2022/03/01 07:57:29;;;;;;;16.25;12.07;;;3.80;82.30;;;;;;4992729;28;20670;-69
2022/03/01 07:59:55;;;;;;;15.70;12.27;;;3.90;82.30;;;;;;4990743;28;20046;-68
2022/03/01 08:02:20;;;;;;;18.63;12.63;;;3.90;82.40;;;;;;5003052;28;20045;-69
2022/03/01 08:04:49;;;;;;;15.23;11.43;;;3.90;82.40;;;;;;4990907;28;20510;-68
2022/03/01 08:07:15;;;;;;;16.67;12.70;;;4.00;82.30;;;;;;5007815;28;20137;-68
2022/03/01 08:09:41;;;;;;;16.77;12.32;;;4.10;82.30;;;;;;4983195;28;20078;-68
2022/03/01 08:12:08;;;;;;;15.85;13.07;;;4.10;82.30;;;;;;4986664;28;20518;-68
2022/03/01 08:14:35;;;;;;;16.77;12.68;;;4.10;82.20;;;;;;4988560;28;20104;-68
2022/03/01 08:17:02;;;;;;;18.35;12.85;;;4.20;82.10;;;;;;4983577;28;20054;-69
2022/03/01 08:19:28;;;;;;;16.77;12.95;;;4.20;82.20;;;;;;4983283;28;20478;-69
2022/03/01 08:21:54;;;;;;;18.30;13.13;;;4.30;81.90;;;;;;4986933;28;20038;-68
2022/03/01 08:24:20;;;;;;;15.90;12.25;;;4.40;81.90;;;;;;4984987;28;20150;-69
2022/03/01 08:26:46;;;;;;;16.77;12.80;;;4.40;81.90;;;;;;4988286;28;20088;-69
2022/03/01 08:29:12;;;;;;;18.20;12.80;;;4.50;81.70;;;;;;4983555;28;20495;-69
2022/03/01 08:31:41;;;;;;;16.30;12.45;;;4.60;82.40;;;;;;4987013;28;20046;-69
2022/03/01 08:34:10;;;;;;;16.13;12.10;;;4.70;81.50;;;;;;4975845;28;20055;-69
2022/03/01 08:36:35;;;;;;;19.50;13.55;;;4.80;81.10;;;;;;5002404;28;20246;-69
2022/03/01 08:39:02;;;;;;;16.25;12.30;;;4.90;81.00;;;;;;4984197;28;20039;-69
2022/03/01 08:41:28;;;;;;;19.00;13.30;;;5.20;81.00;;;;;;5003381;28;20042;-68
2022/03/01 08:43:54;;;;;;;18.20;12.18;;;5.50;80.40;;;;;;4987075;28;20474;-68
2022/03/01 08:46:20;;;;;;;16.15;12.23;;;5.70;79.90;;;;;;4984854;28;20121;-68
2022/03/01 08:48:45;;;;;;;18.33;13.32;;;6.10;79.20;;;;;;4985766;28;20045;-69
2022/03/01 08:51:12;;;;;;;17.88;13.60;;;6.20;78.40;;;;;;4984445;28;20042;-69
2022/03/01 08:53:39;;;;;;;18.05;13.23;;;6.30;78.20;;;;;;4986479;28;20042;-69
2022/03/01 08:56:05;;;;;;;16.33;13.48;;;6.30;78.10;;;;;;4984871;28;20495;-69
2022/03/01 08:58:31;;;;;;;17.83;12.85;;;6.30;78.50;;;;;;4988518;28;20117;-69
2022/03/01 09:00:56;;;;;;;16.13;12.68;;;6.40;77.90;;;;;;4986285;28;20113;-69
2022/03/01 09:03:23;;;;;;;17.42;13.57;;;6.40;77.20;;;;;;4989429;28;20572;-69
2022/03/01 09:05:49;;;;;;;17.75;12.95;;;6.50;77.50;;;;;;4977947;28;20047;-69
2022/03/01 09:08:15;;;;;;;19.10;14.38;;;6.60;77.30;;;;;;4980582;28;20089;-69
2022/03/01 09:10:41;;;;;;;16.67;13.40;;;6.70;76.30;;;;;;4996497;28;20529;-69
2022/03/01 09:13:07;;;;;;;17.27;13.68;;;6.80;75.90;;;;;;5005794;28;20422;-69
2022/03/01 09:15:33;;;;;;;15.15;13.35;;;6.90;75.80;;;;;;5001400;28;20112;-69
2022/03/01 09:18:05;;;;;;;19.88;13.70;;;6.90;75.50;;;;;;5006044;28;20057;-69
2022/03/01 09:20:32;;;;;;;17.92;13.38;;;7.10;75.30;;;;;;4997359;28;20366;-69
2022/03/01 09:22:59;;;;;;;17.40;14.07;;;7.30;74.70;;;;;;5009751;28;20690;-69
2022/03/01 09:25:26;;;;;;;14.88;12.32;;;7.60;74.60;;;;;;4985238;28;20494;-69
2022/03/01 09:27:52;;;;;;;14.48;12.75;;;8.00;73.80;;;;;;5003849;28;20045;-69
2022/03/01 09:30:18;;;;;;;15.07;12.27;;;8.10;71.90;;;;;;5013412;28;20038;-69
2022/03/01 09:32:45;;;;;;;15.13;13.13;;;8.20;71.40;;;;;;4987840;28;20699;-69
2022/03/01 09:35:11;;;;;;;15.13;12.77;;;8.10;71.00;;;;;;5000490;28;20069;-69
2022/03/01 09:37:37;;;;;;;15.52;12.00;;;8.10;71.30;;;;;;5002269;28;20042;-69
2022/03/01 09:40:05;;;;;;;17.02;13.85;;;8.10;71.00;;;;;;5003220;28;20054;-69
2022/03/01 09:42:32;;;;;;;17.30;12.70;;;8.30;69.90;;;;;;5008979;28;20569;-69
2022/03/01 09:44:59;;;;;;;13.93;12.35;;;8.20;70.00;;;;;;4992537;28;20058;-69
2022/03/01 09:47:25;;;;;;;16.20;13.40;;;8.30;70.70;;;;;;4992867;28;20531;-69
2022/03/01 09:49:52;;;;;;;15.93;12.05;;;8.30;71.20;;;;;;5004221;28;20038;-69
2022/03/01 09:52:19;;;;;;;16.92;13.20;;;8.40;70.30;;;;;;4996445;28;20058;-69
2022/03/01 09:54:45;;;;;;;15.07;13.18;;;8.20;70.70;;;;;;4997185;28;20054;-69
2022/03/01 09:57:14;;;;;;;18.38;13.38;;;8.10;70.40;;;;;;4985732;28;20054;-69
2022/03/01 09:59:39;;;;;;;18.85;13.30;;;7.90;70.20;;;;;;5010891;28;20080;-69
2022/03/01 10:02:05;;;;;;;16.55;13.00;;;7.80;70.00;;;;;;4999276;28;20050;-69
2022/03/01 10:04:31;;;;;;;16.48;12.27;;;7.70;70.70;;;;;;5013897;28;20034;-69
2022/03/01 10:06:56;;;;;;;14.50;12.65;;;7.80;71.30;;;;;;4990690;28;20057;-69
2022/03/01 10:09:26;;;;;;;17.38;13.27;;;8.00;70.70;;;;;;4989289;28;20057;-69
2022/03/01 10:11:53;;;;;;;15.40;12.82;;;8.30;70.70;;;;;;4989839;28;20128;-69
2022/03/01 10:14:33;;;;;;;14.90;12.93;;;8.80;70.80;;;;;;4991774;28;20037;-69
2022/03/01 10:16:59;;;;;;;16.05;12.93;;;9.70;69.60;;;;;;4989571;28;20147;-69
2022/03/01 10:19:25;;;;;;;16.63;12.38;;;10.60;68.20;;;;;;5008570;28;20453;-70
2022/03/01 10:22:01;;;;;;;17.65;13.32;;;11.50;66.50;;;;;;4989543;28;20045;-70
2022/03/01 10:24:27;;;;;;;17.05;12.85;;;12.40;63.80;;;;;;4994256;28;20068;-70
2022/03/01 10:27:03;;;;;;;15.40;13.10;;;13.20;62.40;;;;;;4983303;28;20463;-70
2022/03/01 10:29:29;;;;;;;14.90;13.30;;;13.90;61.60;;;;;;5004901;28;20319;-70
2022/03/01 10:31:59;;;;;;;15.63;13.65;;;14.30;60.00;;;;;;4989557;28;20460;-70
2022/03/01 10:34:26;;;;;;;14.10;12.38;;;14.70;58.40;;;;;;5015793;28;20112;-70
2022/03/01 10:36:52;;;;;;;14.05;12.55;;;14.40;56.90;;;;;;5007237;28;20074;-70
2022/03/01 10:39:24;;;;;;;14.73;12.90;;;13.90;56.80;;;;;;5017994;28;20065;-70
2022/03/01 10:41:51;;;;;;;14.77;13.18;;;13.70;56.70;;;;;;5009844;28;20719;-70
2022/03/01 10:44:20;;;;;;;14.43;12.65;;;14.40;57.80;;;;;;5005634;28;20045;-71
2022/03/01 10:46:57;;;;;;;14.13;12.43;;;15.40;56.70;;;;;;5006697;28;20046;-71
2022/03/01 10:49:25;;;;;;;13.85;12.45;;;15.80;54.10;;;;;;5010722;28;20129;-71
2022/03/01 10:51:53;;;;;;;14.02;12.20;;;15.70;53.20;;;;;;4992229;28;20121;-71
2022/03/01 10:54:26;;;;;;;13.70;12.30;;;15.30;52.80;;;;;;4991689;28;20037;-70
2022/03/01 10:56:55;;;;;;;14.48;12.35;;;14.80;52.60;;;;;;4990028;28;20093;-71
2022/03/01 10:59:25;;;;;;;13.02;11.63;;;14.20;53.50;;;;;;4988358;28;20133;-70
2022/03/01 11:01:52;;;;;;;14.30;12.73;;;13.90;54.40;;;;;;5009989;28;20034;-71
2022/03/01 11:04:19;;;;;;;13.10;11.77;;;14.00;55.10;;;;;;4991301;28;20654;-71
2022/03/01 11:06:47;;;;;;;13.85;12.43;;;14.20;54.30;;;;;;5015622;28;20449;-70
2022/03/01 11:09:14;;;;;;;12.75;11.25;;;13.90;53.20;;;;;;4993717;28;20046;-70
2022/03/01 11:11:41;;;;;;;13.45;12.00;;;13.40;53.30;;;;;;4972678;28;20069;-70
2022/03/01 11:14:11;;;;;;;13.65;12.25;;;13.00;53.90;;;;;;5005250;28;20088;-70
2022/03/01 11:17:06;;;;;;;14.35;12.88;;;12.60;54.70;;;;;;4991806;28;20057;-71
2022/03/01 11:19:53;;;;;;;14.60;11.93;;;12.30;55.80;;;;;;5001734;28;20077;-70
2022/03/01 11:22:24;;;;;;;13.85;12.02;;;12.00;56.00;;;;;;4994114;28;20044;-70
2022/03/01 11:24:51;;;;;;;14.85;13.15;;;11.80;56.50;;;;;;4985157;28;20084;-69
2022/03/01 11:27:26;;;;;;;14.93;13.10;;;11.60;57.10;;;;;;5013527;28;20030;-69
2022/03/01 11:30:03;;;;;;;13.30;11.85;;;11.50;57.10;;;;;;4986132;28;20510;-69
2022/03/01 11:32:38;;;;;;;14.02;12.57;;;11.40;57.50;;;;;;5009073;28;20520;-69
2022/03/01 11:35:04;;;;;;;15.00;13.45;;;11.30;57.70;;;;;;4987570;28;20089;-69
2022/03/01 11:37:30;;;;;;;14.73;13.23;;;11.30;58.10;;;;;;4977956;28;20486;-70
2022/03/01 11:40:04;;;;;;;19.05;14.45;;;11.20;58.20;;;;;;4991510;28;20108;-70
2022/03/01 11:42:33;;;;;;;14.60;12.85;;;11.20;58.30;;;;;;5004426;28;20038;-70
2022/03/01 11:45:08;;;;;;;14.32;12.75;;;11.10;58.40;;;;;;5004929;28;20042;-70
2022/03/01 11:47:34;;;;;;;14.70;12.63;;;11.10;58.40;;;;;;4988143;28;20112;-70
2022/03/01 11:50:13;;;;;;;14.18;12.68;;;11.10;58.50;;;;;;5008452;28;20042;-70
2022/03/01 11:52:58;;;;;;;14.40;12.40;;;11.10;59.00;;;;;;5011295;28;20041;-70
2022/03/01 11:55:32;;;;;;;16.77;13.13;;;11.30;59.10;;;;;;4985198;28;20050;-70
2022/03/01 11:57:58;;;;;;;;;;;11.20;59.80;;;;;;5008148;28;20092;-70
2022/03/01 12:00:28;;;;;;;15.27;12.75;;;11.20;60.00;;;;;;4993300;28;20409;-70
2022/03/01 12:02:58;;;;;;;14.82;12.07;;;11.20;59.50;;;;;;5009243;28;20037;-70
2022/03/01 12:05:25;;;;;;;14.13;12.48;;;11.30;59.90;;;;;;4989873;28;20050;-70
2022/03/01 12:07:52;;;;;;;16.73;12.63;;;11.30;59.40;;;;;;5009827;28;20472;-70
2022/03/01 12:10:21;;;;;;;13.93;11.82;;;11.30;58.80;;;;;;4990547;28;20371;-70
2022/03/01 12:12:48;;;;;;;18.25;13.45;;;11.20;58.80;;;;;;4988528;28;20049;-70
2022/03/01 12:15:35;;;;;;;17.50;12.90;;;11.20;59.20;;;;;;5004655;28;20038;-70
2022/03/01 12:18:15;;;;;;;15.70;12.50;;;11.20;59.20;;;;;;5007516;28;20180;-70
2022/03/01 12:20:46;;;;;;;14.55;12.63;;;11.10;59.20;;;;;;5005638;28;20026;-70
2022/03/01 12:23:25;;;;;;;15.73;12.60;;;11.00;59.60;;;;;;5004400;28;20073;-70
2022/03/01 12:25:51;;;;;;;15.00;11.98;;;10.90;59.60;;;;;;4992363;28;20057;-70
2022/03/01 12:28:20;;;;;;;16.08;12.80;;;10.80;59.40;;;;;;4987770;28;20046;-70
2022/03/01 12:30:45;;;;;;;13.68;12.02;;;10.70;59.80;;;;;;5006476;28;20482;-70
2022/03/01 12:33:17;;;;;;;13.75;12.10;;;10.70;60.70;;;;;;4990606;28;20103;-70
2022/03/01 12:35:44;;;;;;;15.18;11.95;;;10.80;59.80;;;;;;5007517;28;20049;-70
2022/03/01 12:38:12;;;;;;;15.27;12.25;;;10.70;59.80;;;;;;4983666;28;20061;-70
2022/03/01 12:40:39;;;;;;;14.45;12.25;;;10.70;60.00;;;;;;5008106;28;20074;-70